sensor_id;sensor_type;location;lat;lon;timestamp;P1;durP1;ratioP1;P2;durP2;ratioP2
59306;SDS011;47983;53.016;-2.260;2023-02-11T00:03:50;4.22;;;1.88;;
59306;SDS011;47983;53.016;-2.260;2023-02-11T00:06:18;3.28;;;1.63;;
59306;SDS011;47983;53.016;-2.260;2023-02-11T00:08:46;2.50;;;1.70;;
59306;SDS011;47983;53.016;-2.260;2023-02-11T00:11:15;5.10;;;2.03;;
59306;SDS011;47983;53.016;-2.260;2023-02-11T00:13:44;4.22;;;2.00;;
59306;SDS011;47983;53.016;-2.260;2023-02-11T00:16:14;5.00;;;2.33;;
59306;SDS011;47983;53.016;-2.260;2023-02-11T00:18:43;7.57;;;2.45;;
59306;SDS011;47983;53.016;-2.260;2023-02-11T00:21:12;3.88;;;2.00;;
59306;SDS011;47983;53.016;-2.260;2023-02-11T00:23:45;7.32;;;2.13;;
59306;SDS011;47983;53.016;-2.260;2023-02-11T00:26:14;5.38;;;1.88;;
59306;SDS011;47983;53.016;-2.260;2023-02-11T00:28:44;4.00;;;2.05;;
59306;SDS011;47983;53.016;-2.260;2023-02-11T00:31:13;8.20;;;2.15;;
59306;SDS011;47983;53.016;-2.260;2023-02-11T00:33:41;5.77;;;2.20;;
59306;SDS011;47983;53.016;-2.260;2023-02-11T00:36:13;5.88;;;1.85;;
59306;SDS011;47983;53.016;-2.260;2023-02-11T00:38:46;4.72;;;1.77;;
59306;SDS011;47983;53.016;-2.260;2023-02-11T00:41:16;4.55;;;1.95;;
59306;SDS011;47983;53.016;-2.260;2023-02-11T00:43:44;7.28;;;2.08;;
59306;SDS011;47983;53.016;-2.260;2023-02-11T00:46:13;5.53;;;1.60;;
59306;SDS011;47983;53.016;-2.260;2023-02-11T00:48:41;3.75;;;1.80;;
59306;SDS011;47983;53.016;-2.260;2023-02-11T00:51:09;5.30;;;2.20;;
59306;SDS011;47983;53.016;-2.260;2023-02-11T00:53:37;6.22;;;2.67;;
59306;SDS011;47983;53.016;-2.260;2023-02-11T00:56:05;5.93;;;2.70;;
59306;SDS011;47983;53.016;-2.260;2023-02-11T00:58:33;7.57;;;2.05;;
59306;SDS011;47983;53.016;-2.260;2023-02-11T01:01:01;5.68;;;2.03;;
59306;SDS011;47983;53.016;-2.260;2023-02-11T01:03:29;4.15;;;2.20;;
59306;SDS011;47983;53.016;-2.260;2023-02-11T01:05:57;4.75;;;1.88;;
59306;SDS011;47983;53.016;-2.260;2023-02-11T01:08:25;3.35;;;1.83;;
59306;SDS011;47983;53.016;-2.260;2023-02-11T01:10:56;6.22;;;2.08;;
59306;SDS011;47983;53.016;-2.260;2023-02-11T01:13:26;4.18;;;2.05;;
59306;SDS011;47983;53.016;-2.260;2023-02-11T01:15:55;4.25;;;2.20;;
59306;SDS011;47983;53.016;-2.260;2023-02-11T01:18:23;3.08;;;1.80;;
59306;SDS011;47983;53.016;-2.260;2023-02-11T01:20:51;8.18;;;2.55;;
59306;SDS011;47983;53.016;-2.260;2023-02-11T01:23:20;6.88;;;2.55;;
59306;SDS011;47983;53.016;-2.260;2023-02-11T01:25:47;3.63;;;1.85;;
59306;SDS011;47983;53.016;-2.260;2023-02-11T01:28:20;3.53;;;2.00;;
59306;SDS011;47983;53.016;-2.260;2023-02-11T01:30:51;7.10;;;2.10;;
59306;SDS011;47983;53.016;-2.260;2023-02-11T01:33:19;4.35;;;2.50;;
59306;SDS011;47983;53.016;-2.260;2023-02-11T01:35:48;7.45;;;3.40;;
59306;SDS011;47983;53.016;-2.260;2023-02-11T01:38:18;5.47;;;2.00;;
59306;SDS011;47983;53.016;-2.260;2023-02-11T01:40:49;9.20;;;2.35;;
59306;SDS011;47983;53.016;-2.260;2023-02-11T01:43:22;9.82;;;2.13;;
59306;SDS011;47983;53.016;-2.260;2023-02-11T01:46:37;5.28;;;1.92;;
59306;SDS011;47983;53.016;-2.260;2023-02-11T01:49:05;3.58;;;1.83;;
59306;SDS011;47983;53.016;-2.260;2023-02-11T01:51:37;4.97;;;1.85;;
59306;SDS011;47983;53.016;-2.260;2023-02-11T01:54:10;9.30;;;1.50;;
59306;SDS011;47983;53.016;-2.260;2023-02-11T01:57:00;4.32;;;2.13;;
59306;SDS011;47983;53.016;-2.260;2023-02-11T01:59:53;3.78;;;1.13;;
59306;SDS011;47983;53.016;-2.260;2023-02-11T02:08:05;4.43;;;1.60;;
59306;SDS011;47983;53.016;-2.260;2023-02-11T02:10:46;4.13;;;1.00;;
59306;SDS011;47983;53.016;-2.260;2023-02-11T02:13:16;8.75;;;1.30;;
59306;SDS011;47983;53.016;-2.260;2023-02-11T02:15:48;5.55;;;0.90;;
59306;SDS011;47983;53.016;-2.260;2023-02-11T02:29:48;6.03;;;1.30;;
59306;SDS011;47983;53.016;-2.260;2023-02-11T02:35:28;2.55;;;1.10;;
59306;SDS011;47983;53.016;-2.260;2023-02-11T02:38:45;5.70;;;1.45;;
59306;SDS011;47983;53.016;-2.260;2023-02-11T02:41:11;3.55;;;1.10;;
59306;SDS011;47983;53.016;-2.260;2023-02-11T02:43:43;4.00;;;1.50;;
59306;SDS011;47983;53.016;-2.260;2023-02-11T02:46:24;5.53;;;1.60;;
59306;SDS011;47983;53.016;-2.260;2023-02-11T02:48:54;9.77;;;1.60;;
59306;SDS011;47983;53.016;-2.260;2023-02-11T03:02:46;4.38;;;2.33;;
59306;SDS011;47983;53.016;-2.260;2023-02-11T03:05:54;6.43;;;2.13;;
59306;SDS011;47983;53.016;-2.260;2023-02-11T03:08:33;6.30;;;2.05;;
59306;SDS011;47983;53.016;-2.260;2023-02-11T03:11:02;3.03;;;1.60;;
59306;SDS011;47983;53.016;-2.260;2023-02-11T03:13:33;3.72;;;1.67;;
59306;SDS011;47983;53.016;-2.260;2023-02-11T03:16:06;4.13;;;1.38;;
59306;SDS011;47983;53.016;-2.260;2023-02-11T03:18:38;6.55;;;1.13;;
59306;SDS011;47983;53.016;-2.260;2023-02-11T03:21:09;4.47;;;1.38;;
59306;SDS011;47983;53.016;-2.260;2023-02-11T03:23:39;4.05;;;1.75;;
59306;SDS011;47983;53.016;-2.260;2023-02-11T03:26:20;2.60;;;1.27;;
59306;SDS011;47983;53.016;-2.260;2023-02-11T03:31:41;2.88;;;0.98;;
59306;SDS011;47983;53.016;-2.260;2023-02-11T03:34:13;5.53;;;1.15;;
59306;SDS011;47983;53.016;-2.260;2023-02-11T03:36:47;1.83;;;1.17;;
59306;SDS011;47983;53.016;-2.260;2023-02-11T03:39:26;2.78;;;1.15;;
59306;SDS011;47983;53.016;-2.260;2023-02-11T03:41:57;5.93;;;2.45;;
59306;SDS011;47983;53.016;-2.260;2023-02-11T03:44:29;2.58;;;1.25;;
59306;SDS011;47983;53.016;-2.260;2023-02-11T03:47:00;2.47;;;0.95;;
59306;SDS011;47983;53.016;-2.260;2023-02-11T03:49:31;5.95;;;1.23;;
59306;SDS011;47983;53.016;-2.260;2023-02-11T03:52:02;3.97;;;1.30;;
59306;SDS011;47983;53.016;-2.260;2023-02-11T03:54:32;2.08;;;1.08;;
59306;SDS011;47983;53.016;-2.260;2023-02-11T03:57:01;1.35;;;0.90;;
59306;SDS011;47983;53.016;-2.260;2023-02-11T03:59:29;4.45;;;1.20;;
59306;SDS011;47983;53.016;-2.260;2023-02-11T04:01:57;4.38;;;1.10;;
59306;SDS011;47983;53.016;-2.260;2023-02-11T04:04:25;2.72;;;1.15;;
59306;SDS011;47983;53.016;-2.260;2023-02-11T04:06:53;3.92;;;1.00;;
59306;SDS011;47983;53.016;-2.260;2023-02-11T04:09:20;2.47;;;0.90;;
59306;SDS011;47983;53.016;-2.260;2023-02-11T04:11:48;2.33;;;0.95;;
59306;SDS011;47983;53.016;-2.260;2023-02-11T04:14:15;1.15;;;0.70;;
59306;SDS011;47983;53.016;-2.260;2023-02-11T04:16:43;2.35;;;1.33;;
59306;SDS011;47983;53.016;-2.260;2023-02-11T04:19:11;4.57;;;1.10;;
59306;SDS011;47983;53.016;-2.260;2023-02-11T04:21:38;1.17;;;0.80;;
59306;SDS011;47983;53.016;-2.260;2023-02-11T04:24:06;2.03;;;0.80;;
59306;SDS011;47983;53.016;-2.260;2023-02-11T04:26:33;2.28;;;0.63;;
59306;SDS011;47983;53.016;-2.260;2023-02-11T04:29:01;1.73;;;0.60;;
59306;SDS011;47983;53.016;-2.260;2023-02-11T04:31:29;0.60;;;0.60;;
59306;SDS011;47983;53.016;-2.260;2023-02-11T04:33:56;4.10;;;1.00;;
59306;SDS011;47983;53.016;-2.260;2023-02-11T04:36:24;2.30;;;0.70;;
59306;SDS011;47983;53.016;-2.260;2023-02-11T04:38:51;3.67;;;0.77;;
59306;SDS011;47983;53.016;-2.260;2023-02-11T04:41:19;2.15;;;1.30;;
59306;SDS011;47983;53.016;-2.260;2023-02-11T04:43:46;0.63;;;0.50;;
59306;SDS011;47983;53.016;-2.260;2023-02-11T04:46:14;3.55;;;0.55;;
59306;SDS011;47983;53.016;-2.260;2023-02-11T04:48:41;2.72;;;0.70;;
59306;SDS011;47983;53.016;-2.260;2023-02-11T04:51:09;5.55;;;0.85;;
59306;SDS011;47983;53.016;-2.260;2023-02-11T04:53:37;1.90;;;0.60;;
59306;SDS011;47983;53.016;-2.260;2023-02-11T04:56:04;0.80;;;0.80;;
59306;SDS011;47983;53.016;-2.260;2023-02-11T04:58:32;1.00;;;0.60;;
59306;SDS011;47983;53.016;-2.260;2023-02-11T05:01:04;1.50;;;0.80;;
59306;SDS011;47983;53.016;-2.260;2023-02-11T05:03:36;5.45;;;0.73;;
59306;SDS011;47983;53.016;-2.260;2023-02-11T05:06:04;1.00;;;0.60;;
59306;SDS011;47983;53.016;-2.260;2023-02-11T05:08:32;4.65;;;1.00;;
59306;SDS011;47983;53.016;-2.260;2023-02-11T05:11:00;2.05;;;0.70;;
59306;SDS011;47983;53.016;-2.260;2023-02-11T05:13:28;0.85;;;0.70;;
59306;SDS011;47983;53.016;-2.260;2023-02-11T05:15:56;2.92;;;0.90;;
59306;SDS011;47983;53.016;-2.260;2023-02-11T05:18:23;1.38;;;0.90;;
59306;SDS011;47983;53.016;-2.260;2023-02-11T05:20:51;2.00;;;0.90;;
59306;SDS011;47983;53.016;-2.260;2023-02-11T05:23:19;2.65;;;0.90;;
59306;SDS011;47983;53.016;-2.260;2023-02-11T05:25:46;6.35;;;0.93;;
59306;SDS011;47983;53.016;-2.260;2023-02-11T05:28:14;2.10;;;0.80;;
59306;SDS011;47983;53.016;-2.260;2023-02-11T05:30:42;2.35;;;0.70;;
59306;SDS011;47983;53.016;-2.260;2023-02-11T05:33:09;1.15;;;0.70;;
59306;SDS011;47983;53.016;-2.260;2023-02-11T05:35:37;3.90;;;1.10;;
59306;SDS011;47983;53.016;-2.260;2023-02-11T05:38:04;1.90;;;1.10;;
59306;SDS011;47983;53.016;-2.260;2023-02-11T05:40:32;2.15;;;0.90;;
59306;SDS011;47983;53.016;-2.260;2023-02-11T05:43:00;2.00;;;0.82;;
59306;SDS011;47983;53.016;-2.260;2023-02-11T05:45:27;2.40;;;0.93;;
59306;SDS011;47983;53.016;-2.260;2023-02-11T05:47:55;2.88;;;1.10;;
59306;SDS011;47983;53.016;-2.260;2023-02-11T05:50:23;2.40;;;1.00;;
59306;SDS011;47983;53.016;-2.260;2023-02-11T05:52:52;2.35;;;1.40;;
59306;SDS011;47983;53.016;-2.260;2023-02-11T05:55:19;3.30;;;0.98;;
59306;SDS011;47983;53.016;-2.260;2023-02-11T05:57:47;2.20;;;1.17;;
59306;SDS011;47983;53.016;-2.260;2023-02-11T06:00:15;3.17;;;1.20;;
59306;SDS011;47983;53.016;-2.260;2023-02-11T06:02:43;3.53;;;1.20;;
59306;SDS011;47983;53.016;-2.260;2023-02-11T06:05:11;4.40;;;1.30;;
59306;SDS011;47983;53.016;-2.260;2023-02-11T06:07:38;1.83;;;1.20;;
59306;SDS011;47983;53.016;-2.260;2023-02-11T06:10:06;0.95;;;0.85;;
59306;SDS011;47983;53.016;-2.260;2023-02-11T06:12:35;0.95;;;0.85;;
59306;SDS011;47983;53.016;-2.260;2023-02-11T06:15:04;3.30;;;1.15;;
59306;SDS011;47983;53.016;-2.260;2023-02-11T06:17:32;3.03;;;1.40;;
59306;SDS011;47983;53.016;-2.260;2023-02-11T06:20:04;1.58;;;1.10;;
59306;SDS011;47983;53.016;-2.260;2023-02-11T06:22:33;2.13;;;1.30;;
59306;SDS011;47983;53.016;-2.260;2023-02-11T06:25:01;2.72;;;1.67;;
59306;SDS011;47983;53.016;-2.260;2023-02-11T06:27:29;2.50;;;1.23;;
59306;SDS011;47983;53.016;-2.260;2023-02-11T06:29:57;5.07;;;1.60;;
59306;SDS011;47983;53.016;-2.260;2023-02-11T06:32:26;4.80;;;1.27;;
59306;SDS011;47983;53.016;-2.260;2023-02-11T06:35:10;2.85;;;1.58;;
59306;SDS011;47983;53.016;-2.260;2023-02-11T06:37:39;3.30;;;1.75;;
59306;SDS011;47983;53.016;-2.260;2023-02-11T06:40:08;3.47;;;1.30;;
59306;SDS011;47983;53.016;-2.260;2023-02-11T06:42:37;4.80;;;1.52;;
59306;SDS011;47983;53.016;-2.260;2023-02-11T06:45:05;4.63;;;2.30;;
59306;SDS011;47983;53.016;-2.260;2023-02-11T06:50:03;5.47;;;1.90;;
59306;SDS011;47983;53.016;-2.260;2023-02-11T06:52:32;4.65;;;1.75;;
59306;SDS011;47983;53.016;-2.260;2023-02-11T06:55:00;2.13;;;1.80;;
59306;SDS011;47983;53.016;-2.260;2023-02-11T06:57:29;4.40;;;1.77;;
59306;SDS011;47983;53.016;-2.260;2023-02-11T06:59:57;5.65;;;1.80;;
59306;SDS011;47983;53.016;-2.260;2023-02-11T07:02:25;5.47;;;1.83;;
59306;SDS011;47983;53.016;-2.260;2023-02-11T07:04:52;3.38;;;2.00;;
59306;SDS011;47983;53.016;-2.260;2023-02-11T07:07:20;5.82;;;2.70;;
59306;SDS011;47983;53.016;-2.260;2023-02-11T07:09:48;4.50;;;2.15;;
59306;SDS011;47983;53.016;-2.260;2023-02-11T07:12:15;4.10;;;1.98;;
59306;SDS011;47983;53.016;-2.260;2023-02-11T07:14:43;8.10;;;1.90;;
59306;SDS011;47983;53.016;-2.260;2023-02-11T07:17:11;4.30;;;2.15;;
59306;SDS011;47983;53.016;-2.260;2023-02-11T07:19:38;3.72;;;1.98;;
59306;SDS011;47983;53.016;-2.260;2023-02-11T07:22:06;4.75;;;2.25;;
59306;SDS011;47983;53.016;-2.260;2023-02-11T07:24:33;3.13;;;2.30;;
59306;SDS011;47983;53.016;-2.260;2023-02-11T07:27:01;9.32;;;2.25;;
59306;SDS011;47983;53.016;-2.260;2023-02-11T07:29:29;4.15;;;2.38;;
59306;SDS011;47983;53.016;-2.260;2023-02-11T07:31:56;6.10;;;2.50;;
59306;SDS011;47983;53.016;-2.260;2023-02-11T07:34:24;6.28;;;2.30;;
59306;SDS011;47983;53.016;-2.260;2023-02-11T07:36:51;3.47;;;2.33;;
59306;SDS011;47983;53.016;-2.260;2023-02-11T07:39:19;7.00;;;2.45;;
59306;SDS011;47983;53.016;-2.260;2023-02-11T07:41:48;8.03;;;2.43;;
59306;SDS011;47983;53.016;-2.260;2023-02-11T07:44:16;6.25;;;2.40;;
59306;SDS011;47983;53.016;-2.260;2023-02-11T07:46:44;5.90;;;3.03;;
59306;SDS011;47983;53.016;-2.260;2023-02-11T07:49:14;5.87;;;2.50;;
59306;SDS011;47983;53.016;-2.260;2023-02-11T07:51:42;5.20;;;2.53;;
59306;SDS011;47983;53.016;-2.260;2023-02-11T07:54:10;5.03;;;2.47;;
59306;SDS011;47983;53.016;-2.260;2023-02-11T07:56:38;5.13;;;2.50;;
59306;SDS011;47983;53.016;-2.260;2023-02-11T07:59:06;8.23;;;3.28;;
59306;SDS011;47983;53.016;-2.260;2023-02-11T08:01:35;7.95;;;2.47;;
59306;SDS011;47983;53.016;-2.260;2023-02-11T08:04:03;6.72;;;2.90;;
59306;SDS011;47983;53.016;-2.260;2023-02-11T08:06:33;3.20;;;2.45;;
59306;SDS011;47983;53.016;-2.260;2023-02-11T08:09:05;10.55;;;3.15;;
59306;SDS011;47983;53.016;-2.260;2023-02-11T08:11:34;4.53;;;3.00;;
59306;SDS011;47983;53.016;-2.260;2023-02-11T08:14:01;4.50;;;3.10;;
59306;SDS011;47983;53.016;-2.260;2023-02-11T08:16:30;6.10;;;2.65;;
59306;SDS011;47983;53.016;-2.260;2023-02-11T08:19:03;7.10;;;2.95;;
59306;SDS011;47983;53.016;-2.260;2023-02-11T08:21:37;10.07;;;3.42;;
59306;SDS011;47983;53.016;-2.260;2023-02-11T08:24:05;6.55;;;2.88;;
59306;SDS011;47983;53.016;-2.260;2023-02-11T08:26:34;5.70;;;3.00;;
59306;SDS011;47983;53.016;-2.260;2023-02-11T08:29:04;3.80;;;2.92;;
59306;SDS011;47983;53.016;-2.260;2023-02-11T08:31:36;6.43;;;3.38;;
59306;SDS011;47983;53.016;-2.260;2023-02-11T08:34:06;7.47;;;2.95;;
59306;SDS011;47983;53.016;-2.260;2023-02-11T08:36:35;5.45;;;2.80;;
59306;SDS011;47983;53.016;-2.260;2023-02-11T08:39:04;4.90;;;2.53;;
59306;SDS011;47983;53.016;-2.260;2023-02-11T08:41:46;6.45;;;2.10;;
59306;SDS011;47983;53.016;-2.260;2023-02-11T08:44:16;3.47;;;1.85;;
59306;SDS011;47983;53.016;-2.260;2023-02-11T08:46:45;2.80;;;2.10;;
59306;SDS011;47983;53.016;-2.260;2023-02-11T08:49:13;5.45;;;1.70;;
59306;SDS011;47983;53.016;-2.260;2023-02-11T08:51:42;6.25;;;2.10;;
59306;SDS011;47983;53.016;-2.260;2023-02-11T08:54:16;4.82;;;1.92;;
59306;SDS011;47983;53.016;-2.260;2023-02-11T08:56:44;4.40;;;1.77;;
59306;SDS011;47983;53.016;-2.260;2023-02-11T08:59:12;4.45;;;1.88;;
59306;SDS011;47983;53.016;-2.260;2023-02-11T09:01:41;4.47;;;1.50;;
59306;SDS011;47983;53.016;-2.260;2023-02-11T09:04:10;3.88;;;1.60;;
59306;SDS011;47983;53.016;-2.260;2023-02-11T09:06:38;4.53;;;1.77;;
59306;SDS011;47983;53.016;-2.260;2023-02-11T09:09:08;1.92;;;1.60;;
59306;SDS011;47983;53.016;-2.260;2023-02-11T09:11:38;1.23;;;1.10;;
59306;SDS011;47983;53.016;-2.260;2023-02-11T09:14:07;2.92;;;1.75;;
59306;SDS011;47983;53.016;-2.260;2023-02-11T09:16:43;3.67;;;1.63;;
59306;SDS011;47983;53.016;-2.260;2023-02-11T09:19:11;2.65;;;1.67;;
59306;SDS011;47983;53.016;-2.260;2023-02-11T09:21:39;5.55;;;1.98;;
59306;SDS011;47983;53.016;-2.260;2023-02-11T09:24:07;3.90;;;2.38;;
59306;SDS011;47983;53.016;-2.260;2023-02-11T09:26:35;3.33;;;1.38;;
59306;SDS011;47983;53.016;-2.260;2023-02-11T09:29:03;3.67;;;1.50;;
59306;SDS011;47983;53.016;-2.260;2023-02-11T09:31:32;2.65;;;1.80;;
59306;SDS011;47983;53.016;-2.260;2023-02-11T09:34:01;4.00;;;1.50;;
59306;SDS011;47983;53.016;-2.260;2023-02-11T09:39:00;3.03;;;1.60;;
59306;SDS011;47983;53.016;-2.260;2023-02-11T09:44:15;2.22;;;1.27;;
59306;SDS011;47983;53.016;-2.260;2023-02-11T09:49:43;1.80;;;1.17;;
59306;SDS011;47983;53.016;-2.260;2023-02-11T09:52:29;1.60;;;1.35;;
59306;SDS011;47983;53.016;-2.260;2023-02-11T09:55:01;5.72;;;1.33;;
59306;SDS011;47983;53.016;-2.260;2023-02-11T09:57:34;2.55;;;0.93;;
59306;SDS011;47983;53.016;-2.260;2023-02-11T10:00:17;1.55;;;0.90;;
59306;SDS011;47983;53.016;-2.260;2023-02-11T10:03:01;1.65;;;1.05;;
59306;SDS011;47983;53.016;-2.260;2023-02-11T10:05:55;2.63;;;0.90;;
59306;SDS011;47983;53.016;-2.260;2023-02-11T10:17:37;0.40;;;0.40;;
59306;SDS011;47983;53.016;-2.260;2023-02-11T10:20:28;1.63;;;1.05;;
59306;SDS011;47983;53.016;-2.260;2023-02-11T10:23:12;0.90;;;0.50;;
59306;SDS011;47983;53.016;-2.260;2023-02-11T10:26:07;0.85;;;0.38;;
59306;SDS011;47983;53.016;-2.260;2023-02-11T10:28:38;0.80;;;0.70;;
59306;SDS011;47983;53.016;-2.260;2023-02-11T10:31:12;3.42;;;0.73;;
59306;SDS011;47983;53.016;-2.260;2023-02-11T10:33:58;2.75;;;1.10;;
59306;SDS011;47983;53.016;-2.260;2023-02-11T10:36:36;2.47;;;0.90;;
59306;SDS011;47983;53.016;-2.260;2023-02-11T10:39:11;1.63;;;0.77;;
59306;SDS011;47983;53.016;-2.260;2023-02-11T10:41:55;2.90;;;0.80;;
59306;SDS011;47983;53.016;-2.260;2023-02-11T10:44:29;4.47;;;1.00;;
59306;SDS011;47983;53.016;-2.260;2023-02-11T10:47:04;0.93;;;0.90;;
59306;SDS011;47983;53.016;-2.260;2023-02-11T10:49:50;4.07;;;1.35;;
59306;SDS011;47983;53.016;-2.260;2023-02-11T10:57:49;1.20;;;0.73;;
59306;SDS011;47983;53.016;-2.260;2023-02-11T11:00:32;1.63;;;1.10;;
59306;SDS011;47983;53.016;-2.260;2023-02-11T11:03:24;1.92;;;0.90;;
59306;SDS011;47983;53.016;-2.260;2023-02-11T11:05:54;0.90;;;0.70;;
59306;SDS011;47983;53.016;-2.260;2023-02-11T11:11:16;4.90;;;1.17;;
59306;SDS011;47983;53.016;-2.260;2023-02-11T11:18:52;4.43;;;1.30;;
59306;SDS011;47983;53.016;-2.260;2023-02-11T11:26:58;4.50;;;1.50;;
59306;SDS011;47983;53.016;-2.260;2023-02-11T11:32:28;2.42;;;1.23;;
59306;SDS011;47983;53.016;-2.260;2023-02-11T11:35:00;1.10;;;1.00;;
59306;SDS011;47983;53.016;-2.260;2023-02-11T11:37:31;1.52;;;1.00;;
59306;SDS011;47983;53.016;-2.260;2023-02-11T11:42:35;2.67;;;0.98;;
59306;SDS011;47983;53.016;-2.260;2023-02-11T11:50:42;1.48;;;0.98;;
59306;SDS011;47983;53.016;-2.260;2023-02-11T11:56:12;0.90;;;0.80;;
59306;SDS011;47983;53.016;-2.260;2023-02-11T11:58:44;2.88;;;0.80;;
59306;SDS011;47983;53.016;-2.260;2023-02-11T12:06:35;2.22;;;0.60;;
59306;SDS011;47983;53.016;-2.260;2023-02-11T12:15:03;1.52;;;0.80;;
59306;SDS011;47983;53.016;-2.260;2023-02-11T12:23:28;2.20;;;0.90;;
59306;SDS011;47983;53.016;-2.260;2023-02-11T12:26:15;1.52;;;0.70;;
59306;SDS011;47983;53.016;-2.260;2023-02-11T12:32:20;3.22;;;0.90;;
59306;SDS011;47983;53.016;-2.260;2023-02-11T12:43:29;4.03;;;0.90;;
59306;SDS011;47983;53.016;-2.260;2023-02-11T12:49:08;4.60;;;0.80;;
59306;SDS011;47983;53.016;-2.260;2023-02-11T12:54:41;1.42;;;0.65;;
59306;SDS011;47983;53.016;-2.260;2023-02-11T13:00:23;1.23;;;0.52;;
59306;SDS011;47983;53.016;-2.260;2023-02-11T13:05:38;3.70;;;0.50;;
59306;SDS011;47983;53.016;-2.260;2023-02-11T13:10:56;0.98;;;0.60;;
59306;SDS011;47983;53.016;-2.260;2023-02-11T13:13:34;3.45;;;1.50;;
59306;SDS011;47983;53.016;-2.260;2023-02-11T13:16:39;1.65;;;0.73;;
59306;SDS011;47983;53.016;-2.260;2023-02-11T13:22:17;1.63;;;0.93;;
59306;SDS011;47983;53.016;-2.260;2023-02-11T13:24:53;4.82;;;1.02;;
59306;SDS011;47983;53.016;-2.260;2023-02-11T13:27:50;1.35;;;1.05;;
59306;SDS011;47983;53.016;-2.260;2023-02-11T13:33:15;3.42;;;1.17;;
59306;SDS011;47983;53.016;-2.260;2023-02-11T13:35:49;2.33;;;1.30;;
59306;SDS011;47983;53.016;-2.260;2023-02-11T13:38:36;4.13;;;1.42;;
59306;SDS011;47983;53.016;-2.260;2023-02-11T13:41:05;1.60;;;1.05;;
59306;SDS011;47983;53.016;-2.260;2023-02-11T13:43:42;1.80;;;1.05;;
59306;SDS011;47983;53.016;-2.260;2023-02-11T13:46:10;4.18;;;1.50;;
59306;SDS011;47983;53.016;-2.260;2023-02-11T13:48:48;1.83;;;1.25;;
59306;SDS011;47983;53.016;-2.260;2023-02-11T13:51:35;7.22;;;1.23;;
59306;SDS011;47983;53.016;-2.260;2023-02-11T13:54:05;3.60;;;1.58;;
59306;SDS011;47983;53.016;-2.260;2023-02-11T13:56:35;1.10;;;1.00;;
59306;SDS011;47983;53.016;-2.260;2023-02-11T14:11:03;2.67;;;1.85;;
59306;SDS011;47983;53.016;-2.260;2023-02-11T14:16:18;4.13;;;1.25;;
59306;SDS011;47983;53.016;-2.260;2023-02-11T14:19:04;4.13;;;1.05;;
59306;SDS011;47983;53.016;-2.260;2023-02-11T14:21:36;3.63;;;1.05;;
59306;SDS011;47983;53.016;-2.260;2023-02-11T14:35:06;1.20;;;0.70;;
59306;SDS011;47983;53.016;-2.260;2023-02-11T14:37:53;1.30;;;0.65;;
59306;SDS011;47983;53.016;-2.260;2023-02-11T14:40:33;1.48;;;0.88;;
59306;SDS011;47983;53.016;-2.260;2023-02-11T14:43:43;1.42;;;0.55;;
59306;SDS011;47983;53.016;-2.260;2023-02-11T14:46:15;4.55;;;1.52;;
59306;SDS011;47983;53.016;-2.260;2023-02-11T14:53:53;2.33;;;0.60;;
59306;SDS011;47983;53.016;-2.260;2023-02-11T14:56:27;4.53;;;0.70;;
59306;SDS011;47983;53.016;-2.260;2023-02-11T14:58:57;2.58;;;0.85;;
59306;SDS011;47983;53.016;-2.260;2023-02-11T15:01:26;2.97;;;0.82;;
59306;SDS011;47983;53.016;-2.260;2023-02-11T15:04:02;3.22;;;0.82;;
59306;SDS011;47983;53.016;-2.260;2023-02-11T15:06:41;4.15;;;1.48;;
59306;SDS011;47983;53.016;-2.260;2023-02-11T15:09:13;3.10;;;1.13;;
59306;SDS011;47983;53.016;-2.260;2023-02-11T15:11:50;2.42;;;1.15;;
59306;SDS011;47983;53.016;-2.260;2023-02-11T15:14:26;3.55;;;1.17;;
59306;SDS011;47983;53.016;-2.260;2023-02-11T15:16:57;3.55;;;1.17;;
59306;SDS011;47983;53.016;-2.260;2023-02-11T15:19:29;3.65;;;1.25;;
59306;SDS011;47983;53.016;-2.260;2023-02-11T15:22:03;3.25;;;1.52;;
59306;SDS011;47983;53.016;-2.260;2023-02-11T15:24:33;8.50;;;2.47;;
59306;SDS011;47983;53.016;-2.260;2023-02-11T15:27:02;6.03;;;1.83;;
59306;SDS011;47983;53.016;-2.260;2023-02-11T15:29:35;3.45;;;1.50;;
59306;SDS011;47983;53.016;-2.260;2023-02-11T15:34:36;3.60;;;1.70;;
59306;SDS011;47983;53.016;-2.260;2023-02-11T15:37:03;2.90;;;1.27;;
59306;SDS011;47983;53.016;-2.260;2023-02-11T15:39:33;1.17;;;0.90;;
59306;SDS011;47983;53.016;-2.260;2023-02-11T15:44:47;5.70;;;1.30;;
59306;SDS011;47983;53.016;-2.260;2023-02-11T15:47:22;9.65;;;1.55;;
59306;SDS011;47983;53.016;-2.260;2023-02-11T15:49:50;3.88;;;1.05;;
59306;SDS011;47983;53.016;-2.260;2023-02-11T15:52:22;6.22;;;1.42;;
59306;SDS011;47983;53.016;-2.260;2023-02-11T15:54:52;3.95;;;0.88;;
59306;SDS011;47983;53.016;-2.260;2023-02-11T15:57:22;2.15;;;0.70;;
59306;SDS011;47983;53.016;-2.260;2023-02-11T15:59:50;2.92;;;0.93;;
59306;SDS011;47983;53.016;-2.260;2023-02-11T16:04:53;2.83;;;0.85;;
59306;SDS011;47983;53.016;-2.260;2023-02-11T16:07:45;4.28;;;1.05;;
59306;SDS011;47983;53.016;-2.260;2023-02-11T16:10:18;4.03;;;1.17;;
59306;SDS011;47983;53.016;-2.260;2023-02-11T16:12:58;3.78;;;1.17;;
59306;SDS011;47983;53.016;-2.260;2023-02-11T16:15:27;2.15;;;1.00;;
59306;SDS011;47983;53.016;-2.260;2023-02-11T16:18:01;5.60;;;1.20;;
59306;SDS011;47983;53.016;-2.260;2023-02-11T16:20:38;2.70;;;1.42;;
59306;SDS011;47983;53.016;-2.260;2023-02-11T16:23:06;3.10;;;1.92;;
59306;SDS011;47983;53.016;-2.260;2023-02-11T16:25:43;5.70;;;1.17;;
59306;SDS011;47983;53.016;-2.260;2023-02-11T16:28:12;4.43;;;1.40;;
59306;SDS011;47983;53.016;-2.260;2023-02-11T16:30:42;4.97;;;1.30;;
59306;SDS011;47983;53.016;-2.260;2023-02-11T16:33:10;7.25;;;1.55;;
59306;SDS011;47983;53.016;-2.260;2023-02-11T16:35:38;3.83;;;1.45;;
59306;SDS011;47983;53.016;-2.260;2023-02-11T16:38:06;6.57;;;1.55;;
59306;SDS011;47983;53.016;-2.260;2023-02-11T16:40:34;6.07;;;1.38;;
59306;SDS011;47983;53.016;-2.260;2023-02-11T16:43:03;3.47;;;1.40;;
59306;SDS011;47983;53.016;-2.260;2023-02-11T16:45:31;8.48;;;1.52;;
59306;SDS011;47983;53.016;-2.260;2023-02-11T16:48:04;5.18;;;1.50;;
59306;SDS011;47983;53.016;-2.260;2023-02-11T16:50:34;8.68;;;1.42;;
59306;SDS011;47983;53.016;-2.260;2023-02-11T16:53:03;5.57;;;1.65;;
59306;SDS011;47983;53.016;-2.260;2023-02-11T16:55:32;5.80;;;1.33;;
59306;SDS011;47983;53.016;-2.260;2023-02-11T16:58:01;4.78;;;1.35;;
59306;SDS011;47983;53.016;-2.260;2023-02-11T17:00:28;3.88;;;1.50;;
59306;SDS011;47983;53.016;-2.260;2023-02-11T17:02:56;6.70;;;1.40;;
59306;SDS011;47983;53.016;-2.260;2023-02-11T17:05:24;4.78;;;1.63;;
59306;SDS011;47983;53.016;-2.260;2023-02-11T17:07:52;8.23;;;2.42;;
59306;SDS011;47983;53.016;-2.260;2023-02-11T17:10:24;2.92;;;1.50;;
59306;SDS011;47983;53.016;-2.260;2023-02-11T17:12:51;4.47;;;1.77;;
59306;SDS011;47983;53.016;-2.260;2023-02-11T17:15:19;6.72;;;1.50;;
59306;SDS011;47983;53.016;-2.260;2023-02-11T17:17:47;5.65;;;1.63;;
59306;SDS011;47983;53.016;-2.260;2023-02-11T17:20:15;4.70;;;1.60;;
59306;SDS011;47983;53.016;-2.260;2023-02-11T17:22:43;6.15;;;1.70;;
59306;SDS011;47983;53.016;-2.260;2023-02-11T17:25:10;4.63;;;1.80;;
59306;SDS011;47983;53.016;-2.260;2023-02-11T17:27:38;2.92;;;1.40;;
59306;SDS011;47983;53.016;-2.260;2023-02-11T17:30:06;4.60;;;1.73;;
59306;SDS011;47983;53.016;-2.260;2023-02-11T17:32:35;3.25;;;2.00;;
59306;SDS011;47983;53.016;-2.260;2023-02-11T17:35:03;7.68;;;3.30;;
59306;SDS011;47983;53.016;-2.260;2023-02-11T17:37:34;4.07;;;2.17;;
59306;SDS011;47983;53.016;-2.260;2023-02-11T17:40:02;9.88;;;3.03;;
59306;SDS011;47983;53.016;-2.260;2023-02-11T17:42:29;7.70;;;3.42;;
59306;SDS011;47983;53.016;-2.260;2023-02-11T17:44:57;12.65;;;5.05;;
59306;SDS011;47983;53.016;-2.260;2023-02-11T17:47:25;15.05;;;5.22;;
59306;SDS011;47983;53.016;-2.260;2023-02-11T17:49:52;9.13;;;3.97;;
59306;SDS011;47983;53.016;-2.260;2023-02-11T17:52:20;19.45;;;6.60;;
59306;SDS011;47983;53.016;-2.260;2023-02-11T17:54:50;13.40;;;6.45;;
59306;SDS011;47983;53.016;-2.260;2023-02-11T17:57:17;13.80;;;6.60;;